Maizey James — WDH5170 — position and weather

sailwx.info

Track history (hours):
 
Tides and Currents Weather Stations Pressure Air Temp Water Temp Dewpoint Dewpoint Depression Visibility Wind Speed Wind Dir Waves Ship Positions

Maizey James

Owner: Jim Maizing Fishing, Belford, NJ. More information available from US FCC via Universal Licensing System and Coast Guard Vessel Documentation Center.

Last reported at 2018-May-31 01:40 UTC. Time now 2018-Jun-20 02:03 UTC.
Position N 40°09' W 073°44'.
Warning: this ship's position is 20 days out of date.

Length 26 m.

Type: Fishing. MMSI: 367625230.

Date/timePositionNaut miles runAvg speedWind from/ knotsBaromVisibWave heightAir tempDewpointWater temp
2018-May-31 01:40N 40°09' W 073°44'1 7.4
2018-May-31 01:29N 40°09' W 073°46'4 7.4
2018-May-31 00:54N 40°08' W 073°51'4 7.3
2018-May-31 00:25N 40°07' W 073°56'3 7.3
2018-May-30 23:59N 40°07' W 073°60'2 4.0
2018-May-30 23:25N 40°06' W 074°03'0 0.0
2018-May-30 22:49N 40°06' W 074°03'0 0.0
2018-May-30 07:07N 40°06' W 074°03'0 0.0
2018-May-30 06:52N 40°06' W 074°03'0 0.0
2018-May-30 05:07N 40°06' W 074°03'0 0.0
2018-May-30 04:58N 40°06' W 074°03'0 0.0
2018-May-30 04:28N 40°06' W 074°03'0 0.0
2018-May-30 03:58N 40°06' W 074°03'0 0.0
2018-May-30 02:07N 40°06' W 074°03'  
2018-May-25 10:24N 40°06' W 074°03'0 0.0
2018-May-25 10:00N 40°06' W 074°03'0 0.0
2018-May-25 09:27N 40°06' W 074°03'0 0.0
2018-May-25 04:12N 40°06' W 074°03'0 0.0
2018-May-25 04:00N 40°06' W 074°03'0 0.0
2018-May-25 03:27N 40°06' W 074°03'0 0.0
2018-May-25 01:51N 40°06' W 074°03'  
2018-May-22 14:00N 40°06' W 074°03'0 0.0
2018-May-22 13:30N 40°06' W 074°03'0 0.0
2018-May-22 12:15N 40°06' W 074°03'0 0.0
2018-May-22 11:51N 40°06' W 074°03'0 0.0
2018-May-22 11:30N 40°06' W 074°03'0 0.0
2018-May-22 10:54N 40°06' W 074°03'0 0.0
2018-May-22 10:30N 40°06' W 074°03'0 0.0
2018-May-22 10:00N 40°06' W 074°03'0 0.0
2018-May-22 09:15N 40°06' W 074°03'0 0.0
2018-May-22 07:36N 40°06' W 074°03'0 0.0
2018-May-22 06:33N 40°06' W 074°03'0 0.1
2018-May-22 06:27N 40°06' W 074°03'0 0.0
2018-May-22 05:57N 40°06' W 074°03'0 0.0
2018-May-22 05:24N 40°06' W 074°03'0 0.0
2018-May-22 05:00N 40°06' W 074°03'0 0.0
2018-May-22 04:24N 40°06' W 074°03'0 0.0
2018-May-22 03:57N 40°06' W 074°03'0 0.0
2018-May-22 03:30N 40°06' W 074°03'  
Track history (hours):
 
Tides and Currents Weather Stations Pressure Air Temp Water Temp Dewpoint Dewpoint Depression Visibility Wind Speed Wind Dir Waves Ship Positions

Maizey James

Owner: Jim Maizing Fishing, Belford, NJ. More information available from US FCC via Universal Licensing System and Coast Guard Vessel Documentation Center.

Last reported at 2018-May-31 01:40 UTC. Time now 2018-Jun-20 02:03 UTC.
Position N 40°09' W 073°44'.
Warning: this ship's position is 20 days out of date.

Length 26 m.

Type: Fishing. MMSI: 367625230.

Date/timePositionNaut miles runAvg speedWind from/ knotsBaromVisibWave heightAir tempDewpointWater temp
2018-May-31 01:40N 40°09' W 073°44'1 7.4
2018-May-31 01:29N 40°09' W 073°46'4 7.4
2018-May-31 00:54N 40°08' W 073°51'4 7.3
2018-May-31 00:25N 40°07' W 073°56'3 7.3
2018-May-30 23:59N 40°07' W 073°60'2 4.0
2018-May-30 23:25N 40°06' W 074°03'0 0.0
2018-May-30 22:49N 40°06' W 074°03'0 0.0
2018-May-30 07:07N 40°06' W 074°03'0 0.0
2018-May-30 06:52N 40°06' W 074°03'0 0.0
2018-May-30 05:07N 40°06' W 074°03'0 0.0
2018-May-30 04:58N 40°06' W 074°03'0 0.0
2018-May-30 04:28N 40°06' W 074°03'0 0.0
2018-May-30 03:58N 40°06' W 074°03'0 0.0
2018-May-30 02:07N 40°06' W 074°03'  
2018-May-25 10:24N 40°06' W 074°03'0 0.0
2018-May-25 10:00N 40°06' W 074°03'0 0.0
2018-May-25 09:27N 40°06' W 074°03'0 0.0
2018-May-25 04:12N 40°06' W 074°03'0 0.0
2018-May-25 04:00N 40°06' W 074°03'0 0.0
2018-May-25 03:27N 40°06' W 074°03'0 0.0
2018-May-25 01:51N 40°06' W 074°03'  
2018-May-22 14:00N 40°06' W 074°03'0 0.0
2018-May-22 13:30N 40°06' W 074°03'0 0.0
2018-May-22 12:15N 40°06' W 074°03'0 0.0
2018-May-22 11:51N 40°06' W 074°03'0 0.0
2018-May-22 11:30N 40°06' W 074°03'0 0.0
2018-May-22 10:54N 40°06' W 074°03'0 0.0
2018-May-22 10:30N 40°06' W 074°03'0 0.0
2018-May-22 10:00N 40°06' W 074°03'0 0.0
2018-May-22 09:15N 40°06' W 074°03'0 0.0
2018-May-22 07:36N 40°06' W 074°03'0 0.0
2018-May-22 06:33N 40°06' W 074°03'0 0.1
2018-May-22 06:27N 40°06' W 074°03'0 0.0
2018-May-22 05:57N 40°06' W 074°03'0 0.0
2018-May-22 05:24N 40°06' W 074°03'0 0.0
2018-May-22 05:00N 40°06' W 074°03'0 0.0
2018-May-22 04:24N 40°06' W 074°03'0 0.0
2018-May-22 03:57N 40°06' W 074°03'0 0.0
2018-May-22 03:30N 40°06' W 074°03'  

Dump ship's entire track history